Time;durP1;ratioP1;P1;durP2;ratioP2;P2;SDS_P1;SDS_P2;PMS_P1;PMS_P2;Temp;Humidity;BMP_temperature;BMP_pressure;BME280_temperature;BME280_humidity;BME280_pressure;Samples;Min_cycle;Max_cycle;Signal;HPM_P1;HPM_P2
2022/05/20 00:00:39;;;;;;;5.57;5.17;;;20.50;99.90;;;;;;4986302;28;20969;-51
2022/05/20 00:03:06;;;;;;;6.40;5.90;;;20.60;1.00;;;;;;4989701;28;20185;-55
2022/05/20 00:05:31;;;;;;;6.77;6.20;;;20.50;1.00;;;;;;4989826;28;20451;-55
2022/05/20 00:07:57;;;;;;;7.53;5.50;;;20.50;99.90;;;;;;4989444;28;20454;-55
2022/05/20 00:10:23;;;;;;;5.87;5.47;;;20.50;99.90;;;;;;4986973;28;20189;-53
2022/05/20 00:12:50;;;;;;;5.90;5.40;;;20.40;1.00;;;;;;4988633;28;20185;-54
2022/05/20 00:15:18;;;;;;;6.33;5.83;;;20.40;1.00;;;;;;4989684;28;20443;-55
2022/05/20 00:17:44;;;;;;;9.83;6.80;;;20.40;1.00;;;;;;4987011;28;20450;-56
2022/05/20 00:20:12;;;;;;;6.30;5.70;;;20.40;1.00;;;;;;4987480;28;20436;-56
2022/05/20 00:22:38;;;;;;;5.60;5.20;;;20.40;1.00;;;;;;4979584;28;20451;-56
2022/05/20 00:27:49;;;;;;;5.67;5.27;;;20.30;1.00;;;;;;4987148;28;20653;-56
2022/05/20 00:30:14;;;;;;;6.20;5.70;;;20.30;1.00;;;;;;4988529;28;20538;-54
2022/05/20 00:32:40;;;;;;;6.40;6.00;;;20.20;1.00;;;;;;4986229;28;20885;-55
2022/05/20 00:35:06;;;;;;;6.93;6.00;;;20.10;1.00;;;;;;4987407;28;20898;-54
2022/05/20 00:37:32;;;;;;;6.40;5.90;;;20.10;7.80;;;;;;4988521;28;20443;-51
2022/05/20 00:39:58;;;;;;;5.90;5.50;;;20.10;75.90;;;;;;4984436;28;21872;-51
2022/05/20 00:42:24;;;;;;;6.67;5.90;;;20.00;99.90;;;;;;4989018;28;20191;-52
2022/05/20 00:44:49;;;;;;;6.10;5.70;;;19.90;99.90;;;;;;4983042;28;20779;-52
2022/05/20 00:47:15;;;;;;;6.77;6.17;;;19.90;99.90;;;;;;4989202;28;20275;-55
2022/05/20 00:49:46;;;;;;;6.20;5.70;;;19.90;99.90;;;;;;4986434;28;20193;-54
2022/05/20 00:52:15;;;;;;;6.77;6.00;;;19.80;99.90;;;;;;4988903;28;20215;-56
2022/05/20 00:54:46;;;;;;;6.47;5.87;;;19.80;99.90;;;;;;4988255;28;20435;-54
2022/05/20 00:57:33;;;;;;;6.00;5.50;;;19.80;99.90;;;;;;4988871;28;20467;-51
2022/05/20 01:00:10;;;;;;;6.97;6.47;;;19.70;99.90;;;;;;4987406;28;20455;-51
2022/05/20 01:02:37;;;;;;;6.50;6.00;;;19.70;99.90;;;;;;4988078;28;20432;-55
2022/05/20 01:05:09;;;;;;;5.97;5.47;;;19.60;99.90;;;;;;4987566;28;20439;-55
2022/05/20 01:07:38;;;;;;;6.70;6.00;;;19.70;99.90;;;;;;4989071;28;20416;-52
2022/05/20 01:10:05;;;;;;;7.07;6.33;;;19.60;99.90;;;;;;4987428;28;20964;-53
2022/05/20 01:12:30;;;;;;;6.73;6.03;;;19.60;1.00;;;;;;4988903;28;20502;-52
2022/05/20 01:14:56;;;;;;;6.17;5.67;;;19.60;1.00;;;;;;4987135;28;20463;-49
2022/05/20 01:17:22;;;;;;;6.50;5.90;;;19.60;1.00;;;;;;4989218;28;20216;-53
2022/05/20 01:19:54;;;;;;;6.23;5.63;;;19.60;1.00;;;;;;4984979;28;20215;-52
2022/05/20 01:22:35;;;;;;;6.73;6.20;;;19.60;1.00;;;;;;4987886;28;20933;-60
2022/05/20 01:25:02;;;;;;;6.73;6.23;;;19.60;1.00;;;;;;4988739;28;20439;-59
2022/05/20 01:27:28;;;;;;;6.77;6.10;;;19.60;1.00;;;;;;4986738;28;20889;-59
2022/05/20 01:29:53;;;;;;;8.77;6.30;;;19.50;1.00;;;;;;4986696;28;20474;-60
2022/05/20 01:32:19;;;;;;;6.33;5.63;;;19.40;1.00;;;;;;4987608;28;20227;-59
2022/05/20 01:34:45;;;;;;;7.20;6.60;;;19.40;1.00;;;;;;4988587;28;20184;-59
2022/05/20 01:37:10;;;;;;;6.70;6.20;;;19.40;1.00;;;;;;4987783;28;20184;-60
2022/05/20 01:39:37;;;;;;;6.73;6.13;;;19.30;1.00;;;;;;4982938;28;20195;-61
2022/05/20 01:42:20;;;;;;;6.77;6.27;;;19.30;1.00;;;;;;4983222;28;20199;-60
2022/05/20 01:44:59;;;;;;;7.10;6.43;;;19.20;1.00;;;;;;4972782;28;20479;-60
2022/05/20 01:47:39;;;;;;;5.80;5.40;;;19.30;1.00;;;;;;4982686;28;20467;-60
2022/05/20 01:50:23;;;;;;;7.07;6.40;;;19.20;1.00;;;;;;4987657;28;20470;-61
2022/05/20 01:52:56;;;;;;;6.80;6.30;;;19.20;1.00;;;;;;4984114;28;20429;-60
2022/05/20 01:55:50;;;;;;;6.97;6.07;;;19.10;1.00;;;;;;4986897;28;20459;-60
2022/05/20 01:58:31;;;;;;;6.53;6.03;;;19.00;1.00;;;;;;4986180;28;20497;-60
2022/05/20 02:01:02;;;;;;;7.23;5.60;;;19.00;1.00;;;;;;4988539;28;20963;-60
2022/05/20 02:03:54;;;;;;;6.53;5.50;;;18.90;1.00;;;;;;4988435;28;20453;-60
2022/05/20 02:06:26;;;;;;;6.40;5.83;;;18.90;1.00;;;;;;4987941;28;20439;-60
2022/05/20 02:08:57;;;;;;;6.10;5.70;;;18.80;1.00;;;;;;4987762;28;20440;-61
2022/05/20 02:11:27;;;;;;;6.60;5.90;;;18.80;1.00;;;;;;4987983;28;20474;-61
2022/05/20 02:13:59;;;;;;;6.73;6.23;;;18.80;1.00;;;;;;4991501;28;20553;-61
2022/05/20 02:16:31;;;;;;;7.87;6.27;;;18.70;1.00;;;;;;4992196;28;20404;-60
2022/05/20 02:19:20;;;;;;;7.47;6.67;;;18.70;1.00;;;;;;4991206;28;20439;-61
2022/05/20 02:21:49;;;;;;;6.87;6.23;;;18.70;1.00;;;;;;4991708;28;20435;-61
2022/05/20 02:24:18;;;;;;;6.80;6.17;;;18.60;1.00;;;;;;4991182;28;20446;-59
2022/05/20 02:26:49;;;;;;;7.07;6.47;;;18.50;1.00;;;;;;4990477;28;20455;-59
2022/05/20 02:29:20;;;;;;;6.70;6.10;;;18.50;1.00;;;;;;4985333;28;20431;-61
2022/05/20 02:31:53;;;;;;;6.80;6.20;;;18.50;1.00;;;;;;4983401;28;21052;-60
2022/05/20 02:34:19;;;;;;;6.70;6.10;;;18.40;1.00;;;;;;4988485;28;20431;-60
2022/05/20 02:36:44;;;;;;;6.97;6.47;;;18.30;1.00;;;;;;4990700;28;20438;-59
2022/05/20 02:39:16;;;;;;;6.70;6.10;;;18.30;1.00;;;;;;4990390;28;20628;-60
2022/05/20 02:41:44;;;;;;;6.97;6.27;;;18.20;1.00;;;;;;4988076;28;20543;-59
2022/05/20 02:44:09;;;;;;;6.43;5.93;;;18.10;1.00;;;;;;4982177;28;20423;-60
2022/05/20 02:46:36;;;;;;;7.17;6.57;;;18.10;10.50;;;;;;4980274;28;20477;-60
2022/05/20 02:49:02;;;;;;;8.00;6.40;;;18.00;5.90;;;;;;4991140;28;20215;-60
2022/05/20 02:51:28;;;;;;;8.33;6.27;;;17.90;19.00;;;;;;4990092;28;20915;-60
2022/05/20 02:53:53;;;;;;;7.43;6.73;;;17.90;27.40;;;;;;4984314;28;20192;-60
2022/05/20 02:56:19;;;;;;;6.83;6.23;;;17.80;26.50;;;;;;4980044;28;20690;-60
2022/05/20 03:04:13;;;;;;;7.17;6.53;;;17.70;40.30;;;;;;4990905;28;20449;-60
2022/05/20 03:06:48;;;;;;;7.20;6.60;;;17.60;45.00;;;;;;4989801;28;20475;-60
2022/05/20 03:09:19;;;;;;;8.87;7.20;;;17.60;46.70;;;;;;4990953;28;20443;-61
2022/05/20 03:11:45;;;;;;;7.53;6.93;;;17.50;55.30;;;;;;4983691;28;20460;-60
2022/05/20 03:14:13;;;;;;;7.30;6.70;;;17.40;56.60;;;;;;4984998;28;20449;-60
2022/05/20 03:16:40;;;;;;;7.37;6.60;;;17.40;66.70;;;;;;4989942;28;20176;-60
2022/05/20 03:19:06;;;;;;;7.87;7.13;;;17.40;72.20;;;;;;4988934;28;20435;-60
2022/05/20 03:21:33;;;;;;;7.03;6.53;;;17.30;75.90;;;;;;4990645;28;20887;-60
2022/05/20 03:23:59;;;;;;;7.17;6.67;;;17.30;90.00;;;;;;4987413;28;20443;-60
2022/05/20 03:26:29;;;;;;;8.27;7.13;;;17.30;92.10;;;;;;4988191;28;20450;-60
2022/05/20 03:28:55;;;;;;;8.03;7.43;;;17.20;92.40;;;;;;4989351;28;20450;-60
2022/05/20 03:31:20;;;;;;;7.90;7.30;;;17.20;94.50;;;;;;4988266;28;20478;-60
2022/05/20 03:33:46;;;;;;;7.60;6.83;;;17.20;98.50;;;;;;4991981;28;20449;-60
2022/05/20 03:36:13;;;;;;;6.93;6.43;;;17.10;98.10;;;;;;4992867;28;20625;-60
2022/05/20 03:38:39;;;;;;;7.87;6.20;;;17.10;96.50;;;;;;4988848;28;20847;-60
2022/05/20 03:41:06;;;;;;;7.00;6.30;;;17.20;98.30;;;;;;4991604;28;20450;-60
2022/05/20 03:43:33;;;;;;;5.97;5.40;;;17.20;97.30;;;;;;4990621;28;20447;-60
2022/05/20 03:45:59;;;;;;;6.83;6.33;;;17.10;96.10;;;;;;4992254;28;20460;-60
2022/05/20 03:48:24;;;;;;;5.43;4.93;;;17.20;94.70;;;;;;4988651;28;20449;-60
2022/05/20 03:50:50;;;;;;;5.57;5.07;;;17.20;88.30;;;;;;4989974;28;20474;-61
2022/05/20 03:53:15;;;;;;;5.73;5.23;;;17.20;61.30;;;;;;4987617;28;20186;-60
2022/05/20 03:55:41;;;;;;;5.57;5.07;;;17.30;48.30;;;;;;4991328;28;20231;-60
2022/05/20 03:58:07;;;;;;;4.93;4.53;;;17.40;42.50;;;;;;4990774;28;20214;-60
2022/05/20 04:01:56;;;;;;;4.63;4.23;;;17.50;25.40;;;;;;4990381;28;20219;-59
2022/05/20 04:03:19;;;;;;;4.70;4.30;;;17.50;17.70;;;;;;4987984;28;20451;-60
2022/05/20 04:05:45;;;;;;;4.20;3.80;;;17.60;1.10;;;;;;4980649;28;20465;-60
2022/05/20 04:08:10;;;;;;;4.00;3.70;;;17.70;1.00;;;;;;4980249;28;20270;-60
2022/05/20 04:10:37;;;;;;;4.80;4.27;;;17.70;1.00;;;;;;4982241;28;20195;-59
2022/05/20 04:13:03;;;;;;;4.70;3.90;;;17.70;1.00;;;;;;4981289;28;20190;-60
2022/05/20 04:15:28;;;;;;;4.50;4.10;;;17.80;1.00;;;;;;4983033;28;20435;-60
2022/05/20 04:17:54;;;;;;;5.63;4.03;;;17.80;1.00;;;;;;4979875;28;20649;-60
2022/05/20 04:20:20;;;;;;;4.00;3.70;;;17.90;1.00;;;;;;4980246;28;20275;-59
2022/05/20 04:22:45;;;;;;;4.80;4.03;;;18.00;1.00;;;;;;4978352;28;20579;-59
2022/05/20 04:25:12;;;;;;;4.30;3.97;;;18.10;1.00;;;;;;4979389;28;20193;-60
2022/05/20 04:27:38;;;;;;;4.23;3.83;;;18.10;1.00;;;;;;4981288;28;20424;-58
2022/05/20 04:30:05;;;;;;;4.47;4.07;;;18.20;1.00;;;;;;4979900;28;20805;-58
2022/05/20 04:32:31;;;;;;;4.30;3.90;;;18.20;1.00;;;;;;4979014;28;20523;-59
2022/05/20 04:34:56;;;;;;;4.30;3.90;;;18.30;1.00;;;;;;4978941;28;20546;-58
2022/05/20 04:37:23;;;;;;;3.87;3.57;;;18.30;1.00;;;;;;4979921;28;20197;-59
2022/05/20 04:39:49;;;;;;;4.70;4.10;;;18.40;1.00;;;;;;4983132;28;20185;-59
2022/05/20 04:47:43;;;;;;;4.40;4.03;;;18.60;1.00;;;;;;4988847;28;20470;-59
2022/05/20 04:50:09;;;;;;;5.30;3.40;;;18.70;1.00;;;;;;4990402;28;20882;-60
2022/05/20 04:52:35;;;;;;;5.30;4.03;;;18.70;1.00;;;;;;4983224;28;20205;-60
2022/05/20 04:55:01;;;;;;;4.20;3.80;;;18.80;1.00;;;;;;4975454;28;20443;-59
2022/05/20 04:57:53;;;;;;;4.10;3.67;;;18.90;1.00;;;;;;4988793;28;20250;-60
2022/05/20 05:00:24;;;;;;;4.17;3.87;;;18.90;1.00;;;;;;4986705;28;21103;-60
2022/05/20 05:02:51;;;;;;;3.80;3.33;;;19.00;1.00;;;;;;4980705;28;20459;-60
2022/05/20 05:05:20;;;;;;;4.20;3.90;;;19.10;1.00;;;;;;4985793;28;20426;-59
2022/05/20 05:07:49;;;;;;;3.97;3.63;;;19.10;1.00;;;;;;4989985;28;20434;-61
2022/05/20 05:10:17;;;;;;;4.10;3.80;;;19.10;1.00;;;;;;4988579;28;20431;-60
2022/05/20 05:12:43;;;;;;;3.90;3.60;;;19.20;1.00;;;;;;4980536;28;20546;-60
2022/05/20 05:15:10;;;;;;;3.67;3.47;;;19.30;99.90;;;;;;4985772;28;20443;-60
2022/05/20 05:20:23;;;;;;;3.80;3.50;;;19.40;99.90;;;;;;4987981;28;20463;-60
2022/05/20 05:22:52;;;;;;;4.33;4.00;;;19.30;99.90;;;;;;4988873;28;20447;-59
2022/05/20 05:25:21;;;;;;;4.20;3.77;;;19.30;99.90;;;;;;4988622;28;20859;-60
2022/05/20 05:27:46;;;;;;;4.00;3.70;;;19.30;99.90;;;;;;4988617;28;21182;-61
2022/05/20 05:30:13;;;;;;;4.60;4.20;;;19.40;99.90;;;;;;4988072;28;20450;-61
2022/05/20 05:32:40;;;;;;;4.30;4.00;;;19.50;99.90;;;;;;4981553;28;20228;-59
2022/05/20 05:35:08;;;;;;;5.37;4.83;;;19.50;99.90;;;;;;4978620;28;20446;-59
2022/05/20 05:37:36;;;;;;;4.80;4.40;;;19.60;99.90;;;;;;4989389;28;20411;-60
2022/05/20 05:40:02;;;;;;;6.40;5.20;;;19.60;99.90;;;;;;4988914;28;20443;-60
2022/05/20 05:42:28;;;;;;;7.40;6.57;;;19.70;99.90;;;;;;4977434;28;20447;-61
2022/05/20 05:44:54;;;;;;;7.77;6.80;;;19.70;99.90;;;;;;4988831;28;20424;-60
2022/05/20 05:47:20;;;;;;;6.83;6.23;;;19.70;99.90;;;;;;4991521;28;20433;-61
2022/05/20 05:49:45;;;;;;;6.80;6.20;;;19.70;99.90;;;;;;4990495;28;20444;-60
2022/05/20 05:52:11;;;;;;;7.77;6.90;;;19.70;99.90;;;;;;4992950;28;20576;-61
2022/05/20 05:54:37;;;;;;;6.30;5.70;;;19.70;99.90;;;;;;4990822;28;20202;-60
2022/05/20 05:57:03;;;;;;;10.83;6.63;;;19.80;99.90;;;;;;4992040;28;20240;-60
2022/05/20 05:59:29;;;;;;;8.50;7.47;;;19.90;65.70;;;;;;4989779;28;20825;-59
2022/05/20 06:01:58;;;;;;;7.00;6.30;;;20.10;1.00;;;;;;4981590;28;20538;-60
2022/05/20 06:04:24;;;;;;;7.30;6.60;;;20.20;1.00;;;;;;4988680;28;20184;-59
2022/05/20 06:06:50;;;;;;;7.17;6.50;;;20.20;1.00;;;;;;4991669;28;20434;-61
2022/05/20 06:09:16;;;;;;;6.83;6.33;;;20.20;1.00;;;;;;4989155;28;20455;-60
2022/05/20 06:11:41;;;;;;;7.03;6.40;;;20.40;99.90;;;;;;4990405;28;20243;-61
2022/05/20 06:14:07;;;;;;;6.97;6.37;;;20.40;99.90;;;;;;4988700;28;20578;-61
2022/05/20 06:16:33;;;;;;;8.00;7.30;;;20.50;99.90;;;;;;4989341;28;20199;-60
2022/05/20 06:18:59;;;;;;;7.83;7.13;;;20.50;1.00;;;;;;4990015;28;20256;-59
2022/05/20 06:21:26;;;;;;;8.43;7.63;;;20.60;1.00;;;;;;4991756;28;20431;-60
2022/05/20 06:23:52;;;;;;;7.30;6.70;;;20.70;99.90;;;;;;4992535;28;20603;-60
2022/05/20 06:26:17;;;;;;;6.33;5.83;;;20.90;99.90;;;;;;4987503;28;20522;-60
2022/05/20 06:28:44;;;;;;;7.20;6.20;;;21.00;1.00;;;;;;4985907;28;20800;-60
2022/05/20 06:31:10;;;;;;;7.63;7.00;;;21.10;99.90;;;;;;4986937;28;20533;-60
2022/05/20 06:33:35;;;;;;;7.60;7.10;;;21.20;3.30;;;;;;4991840;28;20448;-60
2022/05/20 06:41:29;;;;;;;6.50;5.90;;;21.60;1.00;;;;;;4991931;28;20964;-60
2022/05/20 06:43:55;;;;;;;7.63;7.00;;;21.60;99.90;;;;;;4990481;28;20458;-60
2022/05/20 06:46:21;;;;;;;6.83;6.30;;;21.60;1.00;;;;;;4980106;28;20600;-60
2022/05/20 06:48:50;;;;;;;6.90;6.40;;;21.70;1.00;;;;;;4979127;28;20450;-60
2022/05/20 06:51:21;;;;;;;7.40;6.70;;;21.80;1.00;;;;;;4984418;28;20652;-59
2022/05/20 06:53:47;;;;;;;7.17;6.67;;;21.90;1.00;;;;;;4977278;28;21133;-60
2022/05/20 06:56:13;;;;;;;7.20;6.60;;;21.90;1.00;;;;;;4990823;28;20482;-60
2022/05/20 06:58:40;;;;;;;7.40;6.90;;;22.10;99.90;;;;;;4991002;28;20423;-61
2022/05/20 07:01:05;;;;;;;6.97;6.37;;;22.10;79.20;;;;;;4990550;28;20447;-60
2022/05/20 07:03:31;;;;;;;9.57;8.77;;;22.20;99.90;;;;;;4991802;28;20429;-60
2022/05/20 07:05:56;;;;;;;8.90;8.20;;;22.30;1.00;;;;;;4991788;28;20188;-59
2022/05/20 07:08:22;;;;;;;10.10;8.43;;;22.10;1.00;;;;;;4991194;28;20187;-59
2022/05/20 07:10:48;;;;;;;10.33;9.43;;;22.00;1.00;;;;;;4991407;28;20573;-60
2022/05/20 07:13:14;;;;;;;8.90;8.10;;;21.90;1.00;;;;;;4983441;28;20582;-60
2022/05/20 07:15:39;;;;;;;9.37;8.67;;;21.90;1.00;;;;;;4973500;28;20187;-60
2022/05/20 07:18:05;;;;;;;8.80;8.10;;;22.00;1.00;;;;;;4990880;28;20596;-59
2022/05/20 07:20:31;;;;;;;7.73;7.10;;;22.00;1.00;;;;;;4990431;28;20195;-60
2022/05/20 07:22:56;;;;;;;9.70;8.90;;;22.20;1.00;;;;;;4991830;28;20210;-59
2022/05/20 07:25:22;;;;;;;9.37;8.67;;;22.40;1.00;;;;;;4989701;28;20187;-60
2022/05/20 07:27:47;;;;;;;8.30;7.70;;;22.50;99.90;;;;;;4988959;28;20193;-60
2022/05/20 07:30:15;;;;;;;8.33;7.73;;;22.70;99.90;;;;;;4986259;28;20215;-60
2022/05/20 07:32:40;;;;;;;8.70;7.90;;;22.80;99.90;;;;;;4975618;28;20265;-60
2022/05/20 07:35:09;;;;;;;10.17;9.40;;;23.00;99.90;;;;;;4978022;28;20548;-61
2022/05/20 07:37:35;;;;;;;7.90;7.20;;;23.20;1.00;;;;;;4976933;28;20212;-60
2022/05/20 07:40:00;;;;;;;8.87;8.17;;;23.50;1.00;;;;;;4980157;28;20488;-61
2022/05/20 07:42:26;;;;;;;9.23;8.53;;;23.60;1.00;;;;;;4974188;28;20481;-60
2022/05/20 07:44:52;;;;;;;10.83;10.03;;;23.80;1.00;;;;;;4987838;28;20243;-53
2022/05/20 07:47:18;;;;;;;10.87;10.07;;;23.80;99.90;;;;;;4989033;28;20180;-55
2022/05/20 07:49:44;;;;;;;9.43;8.73;;;23.70;99.90;;;;;;4987279;28;20628;-50
2022/05/20 07:52:11;;;;;;;9.27;8.57;;;23.80;99.90;;;;;;4988595;28;20550;-50
2022/05/20 07:54:41;;;;;;;11.23;10.20;;;24.00;99.90;;;;;;4973006;28;20599;-51
2022/05/20 07:57:13;;;;;;;10.10;9.40;;;24.00;99.90;;;;;;4984393;28;20491;-52
2022/05/20 07:59:51;;;;;;;10.80;10.00;;;23.80;99.90;;;;;;4990347;28;20432;-50
2022/05/20 08:02:23;;;;;;;12.57;11.67;;;23.70;99.90;;;;;;4988326;28;20767;-52
2022/05/20 08:05:01;;;;;;;11.00;10.20;;;23.70;99.90;;;;;;4990707;28;20439;-53
2022/05/20 08:07:31;;;;;;;10.40;9.63;;;23.70;99.90;;;;;;4989845;28;20459;-48
2022/05/20 08:10:01;;;;;;;11.37;10.47;;;23.80;99.90;;;;;;4988182;28;20485;-52
2022/05/20 08:12:27;;;;;;;10.57;9.57;;;23.80;99.90;;;;;;4990404;28;20523;-51
2022/05/20 08:14:53;;;;;;;11.20;10.23;;;23.90;99.90;;;;;;4984788;28;20821;-51
2022/05/20 08:17:20;;;;;;;10.90;10.20;;;24.20;99.90;;;;;;4988620;28;20197;-55
2022/05/20 08:19:47;;;;;;;10.10;9.40;;;24.30;99.90;;;;;;4989200;28;20435;-49
2022/05/20 08:22:14;;;;;;;11.10;10.30;;;24.40;99.90;;;;;;4988789;28;20437;-54
2022/05/20 08:24:39;;;;;;;11.37;10.57;;;24.50;77.60;;;;;;4988449;28;20579;-53
2022/05/20 08:27:05;;;;;;;11.13;10.23;;;24.40;28.00;;;;;;4989191;28;21335;-53
2022/05/20 08:29:34;;;;;;;10.03;9.33;;;24.40;14.50;;;;;;4987795;28;20185;-53
2022/05/20 08:32:00;;;;;;;10.47;9.67;;;24.50;41.00;;;;;;4977460;28;20209;-52
2022/05/20 08:34:26;;;;;;;11.13;10.33;;;24.50;58.60;;;;;;4985060;28;20441;-49
2022/05/20 08:36:51;;;;;;;10.33;9.63;;;24.80;13.90;;;;;;4978053;28;20436;-51
2022/05/20 08:39:17;;;;;;;11.30;10.60;;;25.00;1.00;;;;;;4985605;28;20265;-54
2022/05/20 08:41:50;;;;;;;11.03;10.13;;;25.10;1.00;;;;;;4988438;28;20550;-55
2022/05/20 08:44:21;;;;;;;10.17;9.47;;;25.20;1.00;;;;;;4987312;28;20297;-53
2022/05/20 08:46:48;;;;;;;8.70;8.20;;;25.40;1.00;;;;;;4989434;28;20441;-53
2022/05/20 08:49:17;;;;;;;10.00;9.40;;;25.70;1.00;;;;;;4988111;28;20481;-56
2022/05/20 08:51:49;;;;;;;10.97;10.27;;;25.90;1.00;;;;;;4989404;28;20814;-52
2022/05/20 08:54:15;;;;;;;10.77;10.07;;;26.20;1.00;;;;;;4987170;28;20939;-53
2022/05/20 08:56:41;;;;;;;10.47;9.80;;;26.40;1.00;;;;;;4989296;28;20470;-54
2022/05/20 08:59:12;;;;;;;10.53;9.83;;;26.60;1.00;;;;;;4988047;28;20448;-53
2022/05/20 09:01:41;;;;;;;9.97;9.07;;;26.60;1.00;;;;;;4989235;28;20199;-51
2022/05/20 09:04:10;;;;;;;10.20;9.60;;;26.80;1.00;;;;;;4986464;28;20443;-50
2022/05/20 09:06:54;;;;;;;10.30;9.63;;;26.80;1.00;;;;;;4989520;28;20410;-53
2022/05/20 09:09:19;;;;;;;10.77;9.97;;;26.90;1.00;;;;;;4988663;28;20430;-54
2022/05/20 09:11:54;;;;;;;11.13;10.43;;;27.10;1.00;;;;;;4989167;28;20443;-53
2022/05/20 09:17:14;;;;;;;11.50;10.70;;;26.50;1.00;;;;;;4989686;28;20547;-51
2022/05/20 09:20:04;;;;;;;11.33;10.37;;;26.70;1.00;;;;;;4988132;28;20987;-54
2022/05/20 09:22:35;;;;;;;10.20;9.60;;;27.40;1.00;;;;;;4993072;28;20412;-52
2022/05/20 09:25:01;;;;;;;11.50;10.80;;;27.90;1.00;;;;;;4991662;28;20454;-53
2022/05/20 09:27:36;;;;;;;9.70;9.20;;;28.50;99.90;;;;;;4992411;28;20463;-51
2022/05/20 09:30:08;;;;;;;10.20;9.60;;;28.70;99.90;;;;;;4991351;28;20426;-53
2022/05/20 09:32:44;;;;;;;9.67;8.93;;;28.80;99.90;;;;;;4992822;28;20462;-51
2022/05/20 09:35:23;;;;;;;10.70;10.10;;;28.80;99.90;;;;;;4990868;28;20524;-53
2022/05/20 09:37:51;;;;;;;9.57;8.90;;;28.70;99.90;;;;;;4988483;28;20429;-53
2022/05/20 09:40:36;;;;;;;9.30;8.70;;;28.90;99.90;;;;;;4984631;28;20447;-52
2022/05/20 09:43:25;;;;;;;10.10;9.60;;;28.90;99.90;;;;;;4992494;28;20438;-53
2022/05/20 09:45:52;;;;;;;10.60;9.67;;;29.10;99.90;;;;;;4990910;28;20435;-54
2022/05/20 09:48:51;;;;;;;9.57;8.87;;;29.10;99.90;;;;;;4991863;28;21105;-55
2022/05/20 09:51:27;;;;;;;9.37;8.77;;;29.70;99.90;;;;;;4978184;28;20536;-56
2022/05/20 09:54:22;;;;;;;7.80;7.40;;;30.00;99.90;;;;;;4981742;28;20501;-51
2022/05/20 09:57:09;;;;;;;8.40;7.90;;;29.90;99.90;;;;;;4985770;28;20570;-54
2022/05/20 09:59:50;;;;;;;8.77;8.27;;;30.10;99.90;;;;;;4976256;28;20435;-52
2022/05/20 10:02:33;;;;;;;8.87;8.37;;;30.40;99.90;;;;;;4991993;28;20447;-51
2022/05/20 10:05:04;;;;;;;9.50;8.90;;;30.30;99.90;;;;;;4991735;28;20460;-53
2022/05/20 10:07:45;;;;;;;9.40;8.80;;;29.90;99.90;;;;;;4991572;28;20549;-53
2022/05/20 10:10:18;;;;;;;8.50;8.00;;;30.20;99.90;;;;;;4992668;28;20446;-52
2022/05/20 10:12:48;;;;;;;9.33;8.83;;;30.20;99.90;;;;;;4991292;28;20562;-54
2022/05/20 10:15:25;;;;;;;9.20;8.60;;;30.10;99.90;;;;;;4992060;28;20416;-54
2022/05/20 10:18:06;;;;;;;9.80;9.03;;;29.80;99.90;;;;;;4991593;28;20434;-53
2022/05/20 10:21:00;;;;;;;9.80;9.07;;;29.20;99.90;;;;;;4992371;28;20506;-51
2022/05/20 10:23:43;;;;;;;8.87;8.37;;;29.30;99.90;;;;;;5002501;28;20991;-55
2022/05/20 10:26:33;;;;;;;8.50;7.80;;;29.40;99.90;;;;;;4973189;28;20867;-52
2022/05/20 10:34:43;;;;;;;10.13;9.53;;;30.40;99.90;;;;;;4989538;28;20509;-53
2022/05/20 10:37:35;;;;;;;9.30;8.80;;;30.40;99.90;;;;;;4987805;28;20470;-54
2022/05/20 10:40:42;;;;;;;9.20;8.70;;;30.20;99.90;;;;;;4989400;28;20311;-52
2022/05/20 10:43:10;;;;;;;8.77;8.17;;;29.90;99.90;;;;;;4987527;28;20446;-49
2022/05/20 10:48:42;;;;;;;10.10;9.60;;;29.50;99.90;;;;;;4977100;28;20492;-51
2022/05/20 10:51:13;;;;;;;8.93;8.43;;;29.40;99.90;;;;;;4990314;28;20459;-56
2022/05/20 10:53:54;;;;;;;8.57;8.07;;;29.20;99.90;;;;;;4991876;28;21348;-56
2022/05/20 10:56:41;;;;;;;8.83;8.03;;;29.10;99.90;;;;;;4990395;28;20479;-51
2022/05/20 10:59:30;;;;;;;9.10;8.60;;;29.00;99.90;;;;;;4989640;28;20450;-55
2022/05/20 11:02:13;;;;;;;8.53;8.03;;;29.10;99.90;;;;;;4987171;28;20423;-52
2022/05/20 11:04:42;;;;;;;8.87;8.33;;;29.50;99.90;;;;;;4978903;28;20450;-55
2022/05/20 11:07:40;;;;;;;8.13;7.70;;;29.80;99.90;;;;;;4978778;28;20432;-50
2022/05/20 11:10:42;;;;;;;8.40;7.83;;;30.20;99.90;;;;;;4979038;28;20517;-50
2022/05/20 11:13:31;;;;;;;9.10;8.60;;;30.70;99.90;;;;;;4980496;28;20455;-51
2022/05/20 11:16:22;;;;;;;8.40;8.00;;;30.80;99.90;;;;;;4976528;28;20618;-54
2022/05/20 11:19:06;;;;;;;8.50;8.00;;;31.20;99.90;;;;;;4984701;28;20408;-53
2022/05/20 11:21:46;;;;;;;8.43;7.93;;;31.50;99.90;;;;;;4985532;28;20534;-52
2022/05/20 11:24:24;;;;;;;7.80;7.40;;;31.40;99.90;;;;;;4985619;28;20435;-52
2022/05/20 11:27:09;;;;;;;8.60;8.07;;;31.00;99.90;;;;;;4986481;28;20447;-56
2022/05/20 11:29:53;;;;;;;8.57;8.07;;;30.80;99.90;;;;;;4987893;28;20443;-55
2022/05/20 11:32:51;;;;;;;7.50;7.10;;;30.60;99.90;;;;;;4988269;28;20470;-54
2022/05/20 11:35:41;;;;;;;7.63;7.20;;;31.10;99.90;;;;;;4990082;28;20462;-54
2022/05/20 11:38:43;;;;;;;8.40;8.00;;;32.10;99.90;;;;;;4989381;28;20438;-55
2022/05/20 11:41:26;;;;;;;7.67;7.27;;;33.20;99.90;;;;;;4988890;28;20426;-53
2022/05/20 11:44:21;;;;;;;7.97;7.37;;;33.70;99.90;;;;;;4985168;28;20763;-49
2022/05/20 11:47:22;;;;;;;7.20;6.70;;;34.00;99.90;;;;;;4986203;28;20435;-55
2022/05/20 11:50:26;;;;;;;6.30;6.00;;;34.60;99.90;;;;;;4989902;28;20427;-55
2022/05/20 11:52:59;;;;;;;7.33;6.93;;;34.90;99.90;;;;;;4987793;28;20475;-55
2022/05/20 11:55:39;;;;;;;6.17;5.87;;;35.40;99.90;;;;;;4988416;28;20436;-54
2022/05/20 11:58:11;;;;;;;6.57;6.27;;;35.90;99.90;;;;;;4987655;28;20419;-50
2022/05/20 12:00:39;;;;;;;6.80;6.40;;;35.40;99.90;;;;;;4988107;28;20450;-54
2022/05/20 12:03:09;;;;;;;6.50;6.10;;;35.60;99.90;;;;;;4987746;28;20564;-51
2022/05/20 12:05:40;;;;;;;6.73;6.33;;;36.10;99.90;;;;;;4984875;28;20550;-56
2022/05/20 12:08:06;;;;;;;6.53;6.23;;;36.60;99.90;;;;;;4979244;28;20463;-54
2022/05/20 12:10:32;;;;;;;7.00;6.60;;;37.30;99.90;;;;;;4989061;28;20431;-56
2022/05/20 12:13:15;;;;;;;6.77;6.47;;;37.40;99.90;;;;;;4984480;28;20811;-54
2022/05/20 12:16:08;;;;;;;7.43;7.03;;;37.80;99.90;;;;;;4979978;28;20749;-53
2022/05/20 12:24:34;;;;;;;7.30;7.00;;;37.40;99.90;;;;;;4984318;28;20553;-54
2022/05/20 12:27:00;;;;;;;6.37;5.97;;;37.50;99.90;;;;;;4988233;28;20521;-53
2022/05/20 12:29:35;;;;;;;7.13;6.73;;;37.80;99.90;;;;;;4987829;28;20429;-54
2022/05/20 12:32:40;;;;;;;7.17;6.80;;;38.00;99.90;;;;;;4986261;28;20462;-56
2022/05/20 12:35:09;;;;;;;7.20;6.80;;;37.50;99.90;;;;;;4986270;28;20422;-53
2022/05/20 12:37:40;;;;;;;6.90;6.60;;;37.10;99.90;;;;;;4985969;28;20441;-52
2022/05/20 12:40:24;;;;;;;6.87;6.57;;;37.60;99.90;;;;;;4988154;28;20420;-55
2022/05/20 12:42:58;;;;;;;7.23;6.80;;;37.60;99.90;;;;;;4987276;28;20438;-55
2022/05/20 12:45:26;;;;;;;7.10;6.80;;;37.70;99.90;;;;;;4987523;28;20427;-52
2022/05/20 12:47:54;;;;;;;6.93;6.40;;;38.10;99.90;;;;;;4987986;28;20793;-54
2022/05/20 12:50:23;;;;;;;7.50;6.90;;;38.20;99.90;;;;;;4987623;28;21259;-55
2022/05/20 12:52:55;;;;;;;6.47;6.17;;;38.20;99.90;;;;;;4986348;28;20502;-57
2022/05/20 12:55:27;;;;;;;7.37;7.00;;;37.60;99.90;;;;;;4987237;28;20418;-55
2022/05/20 12:57:55;;;;;;;7.83;7.43;;;37.40;99.90;;;;;;4987866;28;20429;-54
2022/05/20 13:00:45;;;;;;;7.20;6.80;;;37.40;99.90;;;;;;4981799;28;20412;-52
2022/05/20 13:03:30;;;;;;;7.60;7.10;;;37.00;99.90;;;;;;4987198;28;20416;-52
2022/05/20 13:06:10;;;;;;;6.73;6.43;;;36.90;99.90;;;;;;4984817;28;20442;-52
2022/05/20 13:08:59;;;;;;;7.20;6.80;;;37.20;99.90;;;;;;4989329;28;20431;-57
2022/05/20 13:11:25;;;;;;;6.67;6.10;;;37.60;99.90;;;;;;4987511;28;20968;-55
2022/05/20 13:13:54;;;;;;;7.17;6.87;;;37.90;99.90;;;;;;4988448;28;20458;-53
2022/05/20 13:16:21;;;;;;;7.27;6.87;;;38.10;99.90;;;;;;4986012;28;20435;-54
2022/05/20 13:18:58;;;;;;;7.10;6.70;;;38.30;99.90;;;;;;4989321;28;20763;-51
2022/05/20 13:21:25;;;;;;;6.67;6.20;;;38.50;99.90;;;;;;4984755;28;20454;-53
2022/05/20 13:23:55;;;;;;;7.13;6.73;;;39.00;99.90;;;;;;4987531;28;20443;-50
2022/05/20 13:26:27;;;;;;;6.33;6.03;;;39.30;99.90;;;;;;4981657;28;20526;-56
2022/05/20 13:29:12;;;;;;;7.07;6.70;;;39.50;99.90;;;;;;4988214;28;20976;-53
2022/05/20 13:31:38;;;;;;;7.23;6.93;;;39.40;99.90;;;;;;4982781;28;20499;-54
2022/05/20 13:34:04;;;;;;;6.50;6.20;;;39.70;99.90;;;;;;4986904;28;20490;-54
2022/05/20 13:36:42;;;;;;;7.73;7.20;;;39.50;99.90;;;;;;4988596;28;20184;-52
2022/05/20 13:39:11;;;;;;;6.57;6.17;;;39.60;99.90;;;;;;4987948;28;20527;-54
2022/05/20 13:41:39;;;;;;;6.70;6.40;;;40.00;99.90;;;;;;4987091;28;20439;-55
2022/05/20 13:44:06;;;;;;;6.83;6.53;;;40.40;99.90;;;;;;4983191;28;20448;-57
2022/05/20 13:49:23;;;;;;;7.00;6.70;;;40.20;99.90;;;;;;4987819;28;20881;-54
2022/05/20 13:51:54;;;;;;;6.20;5.70;;;40.20;99.90;;;;;;4987948;28;20474;-56